sensor_id;sensor_type;location;lat;lon;timestamp;pressure;altitude;pressure_sealevel;temperature;humidity
35577;BME280;21680;52.400;16.920;2023-06-26T00:00:42;100757.49;;;19.96;51.94
35577;BME280;21680;52.400;16.920;2023-06-26T00:03:08;100758.73;;;19.97;52.06
35577;BME280;21680;52.400;16.920;2023-06-26T00:05:34;100757.83;;;19.97;52.05
35577;BME280;21680;52.400;16.920;2023-06-26T00:08:00;100755.30;;;19.97;52.05
35577;BME280;21680;52.400;16.920;2023-06-26T00:10:27;100755.98;;;19.97;52.01
35577;BME280;21680;52.400;16.920;2023-06-26T00:12:53;100754.73;;;19.97;52.11
35577;BME280;21680;52.400;16.920;2023-06-26T00:15:18;100752.05;;;19.96;52.18
35577;BME280;21680;52.400;16.920;2023-06-26T00:17:44;100754.25;;;19.96;52.40
35577;BME280;21680;52.400;16.920;2023-06-26T00:20:10;100750.33;;;19.95;52.30
35577;BME280;21680;52.400;16.920;2023-06-26T00:22:36;100751.21;;;19.93;52.47
35577;BME280;21680;52.400;16.920;2023-06-26T00:25:06;100754.38;;;19.92;52.79
35577;BME280;21680;52.400;16.920;2023-06-26T00:27:31;100752.85;;;19.91;52.85
35577;BME280;21680;52.400;16.920;2023-06-26T00:29:56;100753.21;;;19.91;52.89
35577;BME280;21680;52.400;16.920;2023-06-26T00:32:21;100750.42;;;19.90;52.86
35577;BME280;21680;52.400;16.920;2023-06-26T00:34:46;100748.66;;;19.89;52.99
35577;BME280;21680;52.400;16.920;2023-06-26T00:37:12;100746.61;;;19.88;52.95
35577;BME280;21680;52.400;16.920;2023-06-26T00:39:37;100738.65;;;19.85;52.98
35577;BME280;21680;52.400;16.920;2023-06-26T00:42:03;100742.39;;;19.84;52.90
35577;BME280;21680;52.400;16.920;2023-06-26T00:44:28;100740.95;;;19.82;52.85
35577;BME280;21680;52.400;16.920;2023-06-26T00:46:53;100738.13;;;19.78;52.96
35577;BME280;21680;52.400;16.920;2023-06-26T00:49:19;100741.39;;;19.75;53.08
35577;BME280;21680;52.400;16.920;2023-06-26T00:51:44;100736.77;;;19.72;53.00
35577;BME280;21680;52.400;16.920;2023-06-26T00:54:10;100738.64;;;19.72;53.15
35577;BME280;21680;52.400;16.920;2023-06-26T00:56:36;100737.31;;;19.68;53.31
35577;BME280;21680;52.400;16.920;2023-06-26T00:59:02;100737.05;;;19.64;53.20
35577;BME280;21680;52.400;16.920;2023-06-26T01:01:28;100736.53;;;19.60;53.21
35577;BME280;21680;52.400;16.920;2023-06-26T01:03:53;100735.56;;;19.56;53.09
35577;BME280;21680;52.400;16.920;2023-06-26T01:06:21;100732.84;;;19.54;53.22
35577;BME280;21680;52.400;16.920;2023-06-26T01:08:47;100727.54;;;19.52;53.27
35577;BME280;21680;52.400;16.920;2023-06-26T01:11:14;100725.04;;;19.49;53.23
35577;BME280;21680;52.400;16.920;2023-06-26T01:13:41;100724.89;;;19.46;53.22
35577;BME280;21680;52.400;16.920;2023-06-26T01:16:07;100725.87;;;19.43;53.26
35577;BME280;21680;52.400;16.920;2023-06-26T01:18:34;100728.02;;;19.38;53.28
35577;BME280;21680;52.400;16.920;2023-06-26T01:21:01;100732.54;;;19.36;53.22
35577;BME280;21680;52.400;16.920;2023-06-26T01:23:54;100733.98;;;19.34;53.28
35577;BME280;21680;52.400;16.920;2023-06-26T01:26:22;100738.04;;;19.31;53.27
35577;BME280;21680;52.400;16.920;2023-06-26T01:28:52;100734.84;;;19.28;53.19
35577;BME280;21680;52.400;16.920;2023-06-26T01:31:19;100730.42;;;19.24;53.15
35577;BME280;21680;52.400;16.920;2023-06-26T01:33:45;100727.96;;;19.19;53.33
35577;BME280;21680;52.400;16.920;2023-06-26T01:36:12;100728.98;;;19.15;53.33
35577;BME280;21680;52.400;16.920;2023-06-26T01:38:37;100734.12;;;19.11;53.52
35577;BME280;21680;52.400;16.920;2023-06-26T01:41:03;100733.69;;;19.08;53.48
35577;BME280;21680;52.400;16.920;2023-06-26T01:46:25;100727.96;;;19.00;53.47
35577;BME280;21680;52.400;16.920;2023-06-26T01:48:59;100724.73;;;18.95;53.55
35577;BME280;21680;52.400;16.920;2023-06-26T01:51:32;100723.27;;;18.90;53.58
35577;BME280;21680;52.400;16.920;2023-06-26T01:54:00;100718.87;;;18.86;53.69
35577;BME280;21680;52.400;16.920;2023-06-26T01:56:28;100715.48;;;18.83;53.72
35577;BME280;21680;52.400;16.920;2023-06-26T01:58:54;100713.58;;;18.80;53.98
35577;BME280;21680;52.400;16.920;2023-06-26T02:01:21;100714.27;;;18.76;54.02
35577;BME280;21680;52.400;16.920;2023-06-26T02:03:47;100712.77;;;18.72;54.18
35577;BME280;21680;52.400;16.920;2023-06-26T02:06:12;100708.25;;;18.69;54.26
35577;BME280;21680;52.400;16.920;2023-06-26T02:08:38;100707.65;;;18.65;54.31
35577;BME280;21680;52.400;16.920;2023-06-26T02:11:03;100704.40;;;18.62;54.44
35577;BME280;21680;52.400;16.920;2023-06-26T02:13:28;100705.84;;;18.60;54.65
35577;BME280;21680;52.400;16.920;2023-06-26T02:15:53;100707.45;;;18.58;54.61
35577;BME280;21680;52.400;16.920;2023-06-26T02:18:19;100709.64;;;18.56;54.86
35577;BME280;21680;52.400;16.920;2023-06-26T02:20:46;100706.05;;;18.55;54.82
35577;BME280;21680;52.400;16.920;2023-06-26T02:23:11;100698.50;;;18.54;54.93
35577;BME280;21680;52.400;16.920;2023-06-26T02:25:37;100702.22;;;18.53;55.12
35577;BME280;21680;52.400;16.920;2023-06-26T02:28:03;100701.33;;;18.50;55.13
35577;BME280;21680;52.400;16.920;2023-06-26T02:30:28;100700.80;;;18.48;55.31
35577;BME280;21680;52.400;16.920;2023-06-26T02:32:53;100702.52;;;18.44;55.24
35577;BME280;21680;52.400;16.920;2023-06-26T02:35:19;100705.38;;;18.42;55.49
35577;BME280;21680;52.400;16.920;2023-06-26T02:37:44;100704.87;;;18.39;55.56
35577;BME280;21680;52.400;16.920;2023-06-26T02:40:10;100698.92;;;18.36;55.66
35577;BME280;21680;52.400;16.920;2023-06-26T02:42:35;100698.96;;;18.34;55.76
35577;BME280;21680;52.400;16.920;2023-06-26T02:45:00;100701.59;;;18.30;55.62
35577;BME280;21680;52.400;16.920;2023-06-26T02:47:26;100699.81;;;18.27;55.98
35577;BME280;21680;52.400;16.920;2023-06-26T02:49:51;100699.61;;;18.23;56.07
35577;BME280;21680;52.400;16.920;2023-06-26T02:52:16;100698.00;;;18.18;56.20
35577;BME280;21680;52.400;16.920;2023-06-26T02:54:45;100697.23;;;18.14;56.28
35577;BME280;21680;52.400;16.920;2023-06-26T02:57:10;100694.89;;;18.11;56.45
35577;BME280;21680;52.400;16.920;2023-06-26T02:59:35;100697.12;;;18.10;56.58
35577;BME280;21680;52.400;16.920;2023-06-26T03:02:00;100696.27;;;18.09;56.71
35577;BME280;21680;52.400;16.920;2023-06-26T03:04:26;100692.22;;;18.10;56.82
35577;BME280;21680;52.400;16.920;2023-06-26T03:06:51;100694.60;;;18.12;56.92
35577;BME280;21680;52.400;16.920;2023-06-26T03:09:16;100688.83;;;18.12;57.02
35577;BME280;21680;52.400;16.920;2023-06-26T03:11:43;100686.14;;;18.12;57.16
35577;BME280;21680;52.400;16.920;2023-06-26T03:14:08;100690.17;;;18.11;57.34
35577;BME280;21680;52.400;16.920;2023-06-26T03:16:33;100689.01;;;18.10;57.47
35577;BME280;21680;52.400;16.920;2023-06-26T03:18:58;100693.67;;;18.10;57.55
35577;BME280;21680;52.400;16.920;2023-06-26T03:21:24;100688.31;;;18.09;57.63
35577;BME280;21680;52.400;16.920;2023-06-26T03:23:49;100691.79;;;18.09;57.74
35577;BME280;21680;52.400;16.920;2023-06-26T03:26:14;100689.01;;;18.10;58.02
35577;BME280;21680;52.400;16.920;2023-06-26T03:28:40;100686.47;;;18.10;58.13
35577;BME280;21680;52.400;16.920;2023-06-26T03:31:05;100686.58;;;18.08;58.26
35577;BME280;21680;52.400;16.920;2023-06-26T03:33:30;100686.33;;;18.07;58.42
35577;BME280;21680;52.400;16.920;2023-06-26T03:35:56;100689.23;;;18.07;58.53
35577;BME280;21680;52.400;16.920;2023-06-26T03:38:22;100689.91;;;18.05;58.83
35577;BME280;21680;52.400;16.920;2023-06-26T03:40:47;100687.38;;;18.05;59.07
35577;BME280;21680;52.400;16.920;2023-06-26T03:43:12;100686.52;;;18.07;59.23
35577;BME280;21680;52.400;16.920;2023-06-26T03:45:38;100685.54;;;18.08;59.10
35577;BME280;21680;52.400;16.920;2023-06-26T03:48:03;100686.83;;;18.08;59.23
35577;BME280;21680;52.400;16.920;2023-06-26T03:50:29;100691.40;;;18.09;59.18
35577;BME280;21680;52.400;16.920;2023-06-26T03:52:54;100686.11;;;18.12;59.49
35577;BME280;21680;52.400;16.920;2023-06-26T03:55:19;100687.45;;;18.17;59.44
35577;BME280;21680;52.400;16.920;2023-06-26T03:57:46;100687.17;;;18.20;59.33
35577;BME280;21680;52.400;16.920;2023-06-26T04:00:12;100684.59;;;18.23;59.36
35577;BME280;21680;52.400;16.920;2023-06-26T04:02:38;100683.89;;;18.25;59.29
35577;BME280;21680;52.400;16.920;2023-06-26T04:05:04;100687.16;;;18.27;59.30
35577;BME280;21680;52.400;16.920;2023-06-26T04:07:30;100690.73;;;18.30;59.36
35577;BME280;21680;52.400;16.920;2023-06-26T04:09:56;100690.46;;;18.34;59.40
35577;BME280;21680;52.400;16.920;2023-06-26T04:12:22;100692.84;;;18.36;59.30
35577;BME280;21680;52.400;16.920;2023-06-26T04:14:47;100690.30;;;18.38;59.23
35577;BME280;21680;52.400;16.920;2023-06-26T04:17:12;100691.03;;;18.40;59.18
35577;BME280;21680;52.400;16.920;2023-06-26T04:19:38;100690.05;;;18.41;59.17
35577;BME280;21680;52.400;16.920;2023-06-26T04:22:03;100689.94;;;18.43;59.23
35577;BME280;21680;52.400;16.920;2023-06-26T04:24:29;100685.49;;;18.44;59.20
35577;BME280;21680;52.400;16.920;2023-06-26T04:26:54;100684.21;;;18.47;59.16
35577;BME280;21680;52.400;16.920;2023-06-26T04:29:25;100682.64;;;18.51;59.11
35577;BME280;21680;52.400;16.920;2023-06-26T04:31:52;100684.09;;;18.54;59.07
35577;BME280;21680;52.400;16.920;2023-06-26T04:34:17;100684.27;;;18.56;59.08
35577;BME280;21680;52.400;16.920;2023-06-26T04:36:42;100687.20;;;18.60;59.08
35577;BME280;21680;52.400;16.920;2023-06-26T04:39:11;100689.87;;;18.63;59.19
35577;BME280;21680;52.400;16.920;2023-06-26T04:41:37;100686.11;;;18.67;59.13
35577;BME280;21680;52.400;16.920;2023-06-26T04:44:02;100683.13;;;18.73;59.09
35577;BME280;21680;52.400;16.920;2023-06-26T04:46:27;100684.72;;;18.78;59.01
35577;BME280;21680;52.400;16.920;2023-06-26T04:48:53;100686.05;;;18.82;59.10
35577;BME280;21680;52.400;16.920;2023-06-26T04:51:18;100687.05;;;18.86;59.01
35577;BME280;21680;52.400;16.920;2023-06-26T04:53:45;100687.49;;;18.89;58.98
35577;BME280;21680;52.400;16.920;2023-06-26T04:56:11;100689.73;;;18.93;58.90
35577;BME280;21680;52.400;16.920;2023-06-26T04:58:36;100688.27;;;18.96;58.83
35577;BME280;21680;52.400;16.920;2023-06-26T05:01:01;100685.88;;;18.99;58.69
35577;BME280;21680;52.400;16.920;2023-06-26T05:03:26;100686.90;;;19.02;58.62
35577;BME280;21680;52.400;16.920;2023-06-26T05:05:52;100686.04;;;19.03;58.73
35577;BME280;21680;52.400;16.920;2023-06-26T05:08:22;100685.50;;;19.08;58.66
35577;BME280;21680;52.400;16.920;2023-06-26T05:10:48;100685.96;;;19.11;58.57
35577;BME280;21680;52.400;16.920;2023-06-26T05:13:13;100687.11;;;19.15;58.69
35577;BME280;21680;52.400;16.920;2023-06-26T05:15:42;100681.83;;;19.23;58.48
35577;BME280;21680;52.400;16.920;2023-06-26T05:18:08;100681.33;;;19.29;58.55
35577;BME280;21680;52.400;16.920;2023-06-26T05:20:34;100680.69;;;19.34;58.42
35577;BME280;21680;52.400;16.920;2023-06-26T05:23:02;100679.92;;;19.39;58.49
35577;BME280;21680;52.400;16.920;2023-06-26T05:25:28;100679.95;;;19.43;58.37
35577;BME280;21680;52.400;16.920;2023-06-26T05:27:55;100676.80;;;19.47;58.31
35577;BME280;21680;52.400;16.920;2023-06-26T05:30:20;100678.01;;;19.52;58.30
35577;BME280;21680;52.400;16.920;2023-06-26T05:32:47;100674.46;;;19.58;58.28
35577;BME280;21680;52.400;16.920;2023-06-26T05:35:14;100673.77;;;19.64;58.20
35577;BME280;21680;52.400;16.920;2023-06-26T05:37:41;100675.16;;;19.70;58.12
35577;BME280;21680;52.400;16.920;2023-06-26T05:40:07;100673.05;;;19.75;58.03
35577;BME280;21680;52.400;16.920;2023-06-26T05:42:34;100670.72;;;19.82;57.99
35577;BME280;21680;52.400;16.920;2023-06-26T05:44:59;100669.68;;;19.88;57.83
35577;BME280;21680;52.400;16.920;2023-06-26T05:47:24;100669.91;;;19.96;57.83
35577;BME280;21680;52.400;16.920;2023-06-26T05:49:50;100668.80;;;20.03;57.68
35577;BME280;21680;52.400;16.920;2023-06-26T05:52:15;100671.48;;;20.10;57.63
35577;BME280;21680;52.400;16.920;2023-06-26T05:54:41;100671.91;;;20.18;57.51
35577;BME280;21680;52.400;16.920;2023-06-26T05:57:07;100671.11;;;20.27;57.48
35577;BME280;21680;52.400;16.920;2023-06-26T05:59:33;100670.35;;;20.36;57.24
35577;BME280;21680;52.400;16.920;2023-06-26T06:02:00;100666.59;;;20.45;57.20
35577;BME280;21680;52.400;16.920;2023-06-26T06:04:25;100662.48;;;20.53;57.13
35577;BME280;21680;52.400;16.920;2023-06-26T06:06:51;100659.85;;;20.60;56.96
35577;BME280;21680;52.400;16.920;2023-06-26T06:09:16;100656.95;;;20.66;56.81
35577;BME280;21680;52.400;16.920;2023-06-26T06:11:42;100661.74;;;20.74;56.72
35577;BME280;21680;52.400;16.920;2023-06-26T06:14:07;100659.34;;;20.81;56.66
35577;BME280;21680;52.400;16.920;2023-06-26T06:16:32;100660.70;;;20.88;56.62
35577;BME280;21680;52.400;16.920;2023-06-26T06:18:57;100656.48;;;20.96;56.45
35577;BME280;21680;52.400;16.920;2023-06-26T06:21:23;100654.80;;;21.05;56.29
35577;BME280;21680;52.400;16.920;2023-06-26T06:23:48;100654.67;;;21.13;56.25
35577;BME280;21680;52.400;16.920;2023-06-26T06:26:13;100649.92;;;21.22;56.24
35577;BME280;21680;52.400;16.920;2023-06-26T06:28:39;100653.29;;;21.29;56.14
35577;BME280;21680;52.400;16.920;2023-06-26T06:31:04;100648.80;;;21.37;56.05
35577;BME280;21680;52.400;16.920;2023-06-26T06:33:30;100653.31;;;21.46;55.90
35577;BME280;21680;52.400;16.920;2023-06-26T06:35:55;100656.59;;;21.53;55.68
35577;BME280;21680;52.400;16.920;2023-06-26T06:38:20;100655.02;;;21.63;55.71
35577;BME280;21680;52.400;16.920;2023-06-26T06:40:45;100651.70;;;21.71;55.41
35577;BME280;21680;52.400;16.920;2023-06-26T06:43:11;100648.92;;;21.80;55.29
35577;BME280;21680;52.400;16.920;2023-06-26T06:45:36;100649.79;;;21.88;55.15
35577;BME280;21680;52.400;16.920;2023-06-26T06:48:04;100645.69;;;21.93;54.95
35577;BME280;21680;52.400;16.920;2023-06-26T06:50:29;100638.77;;;22.00;54.62
35577;BME280;21680;52.400;16.920;2023-06-26T06:52:54;100640.73;;;22.08;54.51
35577;BME280;21680;52.400;16.920;2023-06-26T06:55:20;100640.89;;;22.16;54.26
35577;BME280;21680;52.400;16.920;2023-06-26T06:57:45;100633.81;;;22.26;54.09
35577;BME280;21680;52.400;16.920;2023-06-26T07:00:12;100634.42;;;22.35;53.83
35577;BME280;21680;52.400;16.920;2023-06-26T07:02:41;100633.71;;;22.45;53.73
35577;BME280;21680;52.400;16.920;2023-06-26T07:05:08;100630.59;;;22.57;53.48
35577;BME280;21680;52.400;16.920;2023-06-26T07:07:35;100629.38;;;22.63;53.09
35577;BME280;21680;52.400;16.920;2023-06-26T07:10:10;100629.83;;;22.71;52.81
35577;BME280;21680;52.400;16.920;2023-06-26T07:12:36;100626.76;;;22.78;52.47
35577;BME280;21680;52.400;16.920;2023-06-26T07:15:03;100627.66;;;22.88;52.27
35577;BME280;21680;52.400;16.920;2023-06-26T07:17:32;100627.25;;;22.96;51.80
35577;BME280;21680;52.400;16.920;2023-06-26T07:19:59;100627.61;;;23.04;51.69
35577;BME280;21680;52.400;16.920;2023-06-26T07:22:24;100627.57;;;23.10;51.32
35577;BME280;21680;52.400;16.920;2023-06-26T07:24:50;100623.77;;;23.15;51.40
35577;BME280;21680;52.400;16.920;2023-06-26T07:27:15;100627.77;;;23.25;51.15
35577;BME280;21680;52.400;16.920;2023-06-26T07:29:42;100620.88;;;23.34;50.99
35577;BME280;21680;52.400;16.920;2023-06-26T07:32:07;100615.94;;;23.41;50.70
35577;BME280;21680;52.400;16.920;2023-06-26T07:34:33;100613.44;;;23.46;50.55
35577;BME280;21680;52.400;16.920;2023-06-26T07:36:59;100614.51;;;23.51;50.33
35577;BME280;21680;52.400;16.920;2023-06-26T07:39:24;100613.36;;;23.58;50.31
35577;BME280;21680;52.400;16.920;2023-06-26T07:41:49;100612.31;;;23.67;50.21
35577;BME280;21680;52.400;16.920;2023-06-26T07:44:14;100607.71;;;23.74;49.80
35577;BME280;21680;52.400;16.920;2023-06-26T07:46:40;100603.52;;;23.82;49.53
35577;BME280;21680;52.400;16.920;2023-06-26T07:49:05;100609.32;;;23.87;49.43
35577;BME280;21680;52.400;16.920;2023-06-26T07:51:30;100605.08;;;23.93;49.32
35577;BME280;21680;52.400;16.920;2023-06-26T07:53:55;100602.48;;;24.01;49.11
35577;BME280;21680;52.400;16.920;2023-06-26T07:56:21;100599.92;;;24.06;48.91
35577;BME280;21680;52.400;16.920;2023-06-26T07:58:46;100600.29;;;24.12;48.90
35577;BME280;21680;52.400;16.920;2023-06-26T08:01:11;100598.60;;;24.18;48.73
35577;BME280;21680;52.400;16.920;2023-06-26T08:03:36;100600.79;;;24.23;48.67
35577;BME280;21680;52.400;16.920;2023-06-26T08:06:02;100599.45;;;24.25;48.40
35577;BME280;21680;52.400;16.920;2023-06-26T08:08:28;100598.67;;;24.24;48.15
35577;BME280;21680;52.400;16.920;2023-06-26T08:10:53;100597.84;;;24.23;48.00
35577;BME280;21680;52.400;16.920;2023-06-26T08:13:19;100595.88;;;24.25;47.95
35577;BME280;21680;52.400;16.920;2023-06-26T08:15:44;100596.09;;;24.30;47.86
35577;BME280;21680;52.400;16.920;2023-06-26T08:18:09;100593.99;;;24.36;47.51
35577;BME280;21680;52.400;16.920;2023-06-26T08:20:34;100594.53;;;24.42;47.28
35577;BME280;21680;52.400;16.920;2023-06-26T08:23:03;100593.05;;;24.49;47.08
35577;BME280;21680;52.400;16.920;2023-06-26T08:25:28;100591.88;;;24.55;46.93
35577;BME280;21680;52.400;16.920;2023-06-26T08:27:54;100593.60;;;24.56;46.68
35577;BME280;21680;52.400;16.920;2023-06-26T08:30:20;100590.54;;;24.54;46.56
35577;BME280;21680;52.400;16.920;2023-06-26T08:32:47;100590.20;;;24.55;46.41
35577;BME280;21680;52.400;16.920;2023-06-26T08:35:13;100591.14;;;24.57;46.13
35577;BME280;21680;52.400;16.920;2023-06-26T08:37:38;100590.77;;;24.57;46.24
35577;BME280;21680;52.400;16.920;2023-06-26T08:40:05;100588.20;;;24.59;45.93
35577;BME280;21680;52.400;16.920;2023-06-26T08:42:31;100583.48;;;24.60;45.99
35577;BME280;21680;52.400;16.920;2023-06-26T08:44:56;100582.13;;;24.65;46.03
35577;BME280;21680;52.400;16.920;2023-06-26T08:47:22;100577.27;;;24.69;46.04
35577;BME280;21680;52.400;16.920;2023-06-26T08:50:10;100577.27;;;24.78;46.02
35577;BME280;21680;52.400;16.920;2023-06-26T08:52:43;100575.56;;;24.89;46.00
35577;BME280;21680;52.400;16.920;2023-06-26T08:55:12;100573.61;;;24.99;45.84
35577;BME280;21680;52.400;16.920;2023-06-26T08:57:39;100575.07;;;25.06;45.74
35577;BME280;21680;52.400;16.920;2023-06-26T09:00:06;100572.84;;;25.12;45.66
35577;BME280;21680;52.400;16.920;2023-06-26T09:02:34;100570.63;;;25.15;45.56
35577;BME280;21680;52.400;16.920;2023-06-26T09:05:01;100568.96;;;25.22;45.25
35577;BME280;21680;52.400;16.920;2023-06-26T09:07:27;100563.79;;;25.29;45.12
35577;BME280;21680;52.400;16.920;2023-06-26T09:09:52;100565.48;;;25.38;44.99
35577;BME280;21680;52.400;16.920;2023-06-26T09:12:18;100565.09;;;25.43;44.92
35577;BME280;21680;52.400;16.920;2023-06-26T09:14:46;100564.20;;;25.49;44.78
35577;BME280;21680;52.400;16.920;2023-06-26T09:17:13;100563.50;;;25.54;44.66
35577;BME280;21680;52.400;16.920;2023-06-26T09:19:38;100556.85;;;25.56;44.33
35577;BME280;21680;52.400;16.920;2023-06-26T09:22:03;100552.63;;;25.62;44.14
35577;BME280;21680;52.400;16.920;2023-06-26T09:24:30;100549.73;;;25.67;44.16
35577;BME280;21680;52.400;16.920;2023-06-26T09:26:55;100547.41;;;25.66;43.83
35577;BME280;21680;52.400;16.920;2023-06-26T09:29:20;100549.94;;;25.61;43.70
35577;BME280;21680;52.400;16.920;2023-06-26T09:31:46;100544.69;;;25.62;43.62
35577;BME280;21680;52.400;16.920;2023-06-26T09:34:11;100541.40;;;25.62;43.40
35577;BME280;21680;52.400;16.920;2023-06-26T09:36:37;100539.02;;;25.69;43.42
35577;BME280;21680;52.400;16.920;2023-06-26T09:39:03;100539.55;;;25.74;43.10
35577;BME280;21680;52.400;16.920;2023-06-26T09:41:35;100537.33;;;25.73;42.81
35577;BME280;21680;52.400;16.920;2023-06-26T09:44:02;100541.45;;;25.76;42.60
35577;BME280;21680;52.400;16.920;2023-06-26T09:46:29;100543.20;;;25.76;42.36
35577;BME280;21680;52.400;16.920;2023-06-26T09:49:02;100540.65;;;25.76;42.31
35577;BME280;21680;52.400;16.920;2023-06-26T09:51:34;100540.30;;;25.73;42.32
35577;BME280;21680;52.400;16.920;2023-06-26T09:54:00;100536.86;;;25.71;42.40
35577;BME280;21680;52.400;16.920;2023-06-26T09:56:27;100536.05;;;25.71;42.45
35577;BME280;21680;52.400;16.920;2023-06-26T09:58:55;100534.30;;;25.75;42.45
35577;BME280;21680;52.400;16.920;2023-06-26T10:01:21;100528.46;;;25.84;42.43
35577;BME280;21680;52.400;16.920;2023-06-26T10:03:46;100522.54;;;25.89;42.42
35577;BME280;21680;52.400;16.920;2023-06-26T10:06:12;100520.20;;;25.92;42.44
35577;BME280;21680;52.400;16.920;2023-06-26T10:08:39;100518.39;;;26.02;42.47
35577;BME280;21680;52.400;16.920;2023-06-26T10:11:06;100520.80;;;26.19;42.48
35577;BME280;21680;52.400;16.920;2023-06-26T10:13:38;100519.98;;;26.37;42.24
35577;BME280;21680;52.400;16.920;2023-06-26T10:16:07;100511.84;;;26.45;42.11
35577;BME280;21680;52.400;16.920;2023-06-26T10:18:35;100507.51;;;26.57;42.16
35577;BME280;21680;52.400;16.920;2023-06-26T10:21:03;100507.77;;;26.69;42.07
35577;BME280;21680;52.400;16.920;2023-06-26T10:23:30;100511.54;;;26.80;41.88
35577;BME280;21680;52.400;16.920;2023-06-26T10:25:58;100507.89;;;26.77;41.55
35577;BME280;21680;52.400;16.920;2023-06-26T10:28:28;100509.13;;;26.81;41.52
35577;BME280;21680;52.400;16.920;2023-06-26T10:30:56;100505.54;;;26.87;41.25
35577;BME280;21680;52.400;16.920;2023-06-26T10:33:25;100501.31;;;26.95;41.09
35577;BME280;21680;52.400;16.920;2023-06-26T10:35:51;100506.37;;;27.11;40.82
35577;BME280;21680;52.400;16.920;2023-06-26T10:38:16;100506.23;;;27.30;40.92
35577;BME280;21680;52.400;16.920;2023-06-26T10:40:47;100505.56;;;27.34;40.51
35577;BME280;21680;52.400;16.920;2023-06-26T10:43:17;100500.83;;;27.31;40.08
35577;BME280;21680;52.400;16.920;2023-06-26T10:45:45;100497.55;;;27.27;39.98
35577;BME280;21680;52.400;16.920;2023-06-26T10:48:14;100494.10;;;27.35;39.95
35577;BME280;21680;52.400;16.920;2023-06-26T10:50:39;100493.18;;;27.47;39.83
35577;BME280;21680;52.400;16.920;2023-06-26T10:53:15;100490.42;;;27.62;39.86
35577;BME280;21680;52.400;16.920;2023-06-26T10:56:00;100488.91;;;27.68;39.79
35577;BME280;21680;52.400;16.920;2023-06-26T10:58:29;100487.56;;;27.75;39.78
35577;BME280;21680;52.400;16.920;2023-06-26T11:03:36;100485.91;;;27.75;39.99
35577;BME280;21680;52.400;16.920;2023-06-26T11:06:14;100481.02;;;27.76;39.88
35577;BME280;21680;52.400;16.920;2023-06-26T11:11:21;100482.83;;;27.82;39.55
35577;BME280;21680;52.400;16.920;2023-06-26T11:13:47;100481.13;;;27.60;39.31
35577;BME280;21680;52.400;16.920;2023-06-26T11:16:14;100478.15;;;27.47;39.48
35577;BME280;21680;52.400;16.920;2023-06-26T11:18:40;100473.86;;;27.32;39.36
35577;BME280;21680;52.400;16.920;2023-06-26T11:21:10;100474.14;;;27.37;39.51
35577;BME280;21680;52.400;16.920;2023-06-26T11:23:37;100473.69;;;27.60;39.68
35577;BME280;21680;52.400;16.920;2023-06-26T11:26:19;100467.72;;;27.78;39.78
35577;BME280;21680;52.400;16.920;2023-06-26T11:28:50;100465.65;;;27.88;39.67
35577;BME280;21680;52.400;16.920;2023-06-26T11:31:39;100459.86;;;27.84;39.14
35577;BME280;21680;52.400;16.920;2023-06-26T11:34:10;100456.40;;;27.80;39.12
35577;BME280;21680;52.400;16.920;2023-06-26T11:36:37;100453.57;;;27.72;39.17
35577;BME280;21680;52.400;16.920;2023-06-26T11:39:05;100448.73;;;27.63;39.19
35577;BME280;21680;52.400;16.920;2023-06-26T11:41:35;100445.63;;;27.52;39.02
35577;BME280;21680;52.400;16.920;2023-06-26T11:44:05;100442.10;;;27.51;39.24
35577;BME280;21680;52.400;16.920;2023-06-26T11:46:31;100443.33;;;27.69;39.41
35577;BME280;21680;52.400;16.920;2023-06-26T11:48:57;100444.73;;;27.77;39.02
35577;BME280;21680;52.400;16.920;2023-06-26T11:51:22;100443.44;;;27.69;39.03
35577;BME280;21680;52.400;16.920;2023-06-26T11:53:49;100443.00;;;27.67;39.01
35577;BME280;21680;52.400;16.920;2023-06-26T11:56:15;100437.20;;;27.61;38.89
35577;BME280;21680;52.400;16.920;2023-06-26T11:59:06;100427.63;;;27.56;39.15
35577;BME280;21680;52.400;16.920;2023-06-26T12:01:35;100429.58;;;27.65;39.14
35577;BME280;21680;52.400;16.920;2023-06-26T12:04:02;100426.25;;;27.70;39.10
35577;BME280;21680;52.400;16.920;2023-06-26T12:06:29;100423.54;;;27.74;39.20
35577;BME280;21680;52.400;16.920;2023-06-26T12:08:56;100424.38;;;27.81;39.24
35577;BME280;21680;52.400;16.920;2023-06-26T12:11:23;100421.13;;;27.88;39.32
35577;BME280;21680;52.400;16.920;2023-06-26T12:13:49;100418.40;;;27.93;39.31
35577;BME280;21680;52.400;16.920;2023-06-26T12:16:15;100416.78;;;27.97;39.18
35577;BME280;21680;52.400;16.920;2023-06-26T12:18:40;100416.08;;;28.16;39.40
35577;BME280;21680;52.400;16.920;2023-06-26T12:21:06;100408.86;;;28.43;39.31
35577;BME280;21680;52.400;16.920;2023-06-26T12:23:39;100407.39;;;28.72;39.33
35577;BME280;21680;52.400;16.920;2023-06-26T12:26:21;100400.15;;;29.07;39.14
35577;BME280;21680;52.400;16.920;2023-06-26T12:28:46;100398.92;;;29.26;38.98
35577;BME280;21680;52.400;16.920;2023-06-26T12:31:15;100397.15;;;29.30;38.86
35577;BME280;21680;52.400;16.920;2023-06-26T12:33:42;100399.26;;;29.32;38.60
35577;BME280;21680;52.400;16.920;2023-06-26T12:36:14;100398.41;;;29.22;38.38
35577;BME280;21680;52.400;16.920;2023-06-26T12:38:45;100399.38;;;29.11;38.42
35577;BME280;21680;52.400;16.920;2023-06-26T12:41:14;100397.05;;;29.12;38.56
35577;BME280;21680;52.400;16.920;2023-06-26T12:43:40;100399.20;;;29.14;38.27
35577;BME280;21680;52.400;16.920;2023-06-26T12:46:06;100401.16;;;28.99;37.94